Time;durP1;ratioP1;P1;durP2;ratioP2;P2;SDS_P1;SDS_P2;PMS_P1;PMS_P2;Temp;Humidity;BMP_temperature;BMP_pressure;BME280_temperature;BME280_humidity;BME280_pressure;Samples;Min_cycle;Max_cycle;Signal;HPM_P1;HPM_P2
2021/12/04 00:01:57;;;;;;;0.20;0.20;;;;;;;23.04;11.07;99202.03;5114529;28;20094;-71
2021/12/04 00:04:28;;;;;;;0.30;0.30;;;;;;;23.01;11.09;99199.91;5114961;28;20030;-70
2021/12/04 00:06:53;;;;;;;0.25;0.25;;;;;;;23.00;11.11;99203.72;5114194;28;20538;-71
2021/12/04 00:09:21;;;;;;;0.35;0.35;;;;;;;23.01;10.98;99205.38;5114495;27;20024;-70
2021/12/04 00:12:01;;;;;;;0.35;0.35;;;;;;;23.02;10.92;99209.69;5118474;27;20031;-71
2021/12/04 00:14:26;;;;;;;0.20;0.20;;;;;;;23.02;11.12;99209.69;5135346;27;20027;-70
2021/12/04 00:16:52;;;;;;;0.20;0.20;;;;;;;23.03;10.82;99205.06;5134121;27;20492;-70
2021/12/04 00:19:17;;;;;;;0.20;0.20;;;;;;;23.00;10.96;99211.91;5134937;27;20080;-71
2021/12/04 00:21:42;;;;;;;0.30;0.30;;;;;;;23.01;11.00;99216.25;5134796;27;20026;-71
2021/12/04 00:24:08;;;;;;;0.30;0.30;;;;;;;23.00;10.98;99222.81;5133946;27;20385;-69
2021/12/04 00:26:33;;;;;;;0.20;0.20;;;;;;;23.03;10.93;99226.88;5134735;27;20027;-69
2021/12/04 00:28:59;;;;;;;0.30;0.30;;;;;;;22.99;11.04;99225.81;5134583;27;20031;-71
2021/12/04 00:31:26;;;;;;;0.38;0.38;;;;;;;23.00;11.13;99224.72;5134355;28;20350;-70
2021/12/04 00:33:51;;;;;;;0.35;0.35;;;;;;;23.00;10.86;99232.91;5134409;27;20023;-71
2021/12/04 00:36:29;;;;;;;0.35;0.35;;;;;;;22.99;11.13;99226.66;5134683;27;20049;-70
2021/12/04 00:49:52;;;;;;;0.20;0.20;;;;;;;23.02;10.88;99236.13;5091576;28;20043;-71
2021/12/04 00:52:17;;;;;;;0.30;0.30;;;;;;;22.98;10.85;99246.81;5091350;28;20032;-71
2021/12/04 00:54:44;;;;;;;0.20;0.20;;;;;;;22.95;10.99;99247.41;5091280;28;20028;-71
2021/12/04 00:57:09;;;;;;;0.30;0.30;;;;;;;22.96;10.81;99243.59;5091071;28;20035;-70
2021/12/04 00:59:35;;;;;;;0.20;0.20;;;;;;;22.98;10.79;99246.03;5091438;28;20032;-70
2021/12/04 01:02:00;;;;;;;0.10;0.10;;;;;;;22.96;10.83;99243.59;5091293;28;20058;-70
2021/12/04 01:04:26;;;;;;;0.20;0.20;;;;;;;22.98;10.92;99246.03;5090959;28;20448;-70
2021/12/04 01:06:51;;;;;;;0.20;0.20;;;;;;;22.99;10.74;99253.06;5091041;28;20028;-70
2021/12/04 01:09:19;;;;;;;0.20;0.20;;;;;;;22.98;10.79;99255.00;5090979;28;20032;-70
2021/12/04 01:11:45;;;;;;;0.20;0.20;;;;;;;22.96;10.85;99254.50;5071573;28;20078;-70
2021/12/04 01:14:12;;;;;;;0.30;0.30;;;;;;;22.96;10.71;99257.22;5070818;28;20033;-71
2021/12/04 01:16:37;;;;;;;0.30;0.30;;;;;;;22.96;10.74;99259.13;5070337;28;20506;-70
2021/12/04 01:19:03;;;;;;;0.20;0.20;;;;;;;22.95;10.88;99258.31;5071270;28;20039;-70
2021/12/04 01:21:28;;;;;;;0.30;0.30;;;;;;;22.93;10.74;99248.81;5070794;28;20043;-70
2021/12/04 01:23:55;;;;;;;0.20;0.20;;;;;;;22.93;10.66;99249.63;5087330;28;20036;-71
2021/12/04 01:26:20;;;;;;;0.20;0.20;;;;;;;22.94;10.76;99251.25;5113670;28;20389;-70
2021/12/04 01:28:45;;;;;;;0.30;0.30;;;;;;;22.95;10.97;99257.50;5113568;28;20028;-70
2021/12/04 01:31:11;;;;;;;0.30;0.30;;;;;;;22.93;10.63;99260.53;5113234;28;20105;-70
2021/12/04 01:33:36;;;;;;;0.15;0.15;;;;;;;22.92;10.57;99258.09;5113663;28;20023;-71
2021/12/04 01:36:02;;;;;;;0.20;0.20;;;;;;;22.92;10.50;99258.94;5114809;28;20035;-70
2021/12/04 01:38:27;;;;;;;0.20;0.20;;;;;;;22.94;10.54;99256.69;5117209;28;20108;-70
2021/12/04 01:40:53;;;;;;;0.30;0.30;;;;;;;22.94;10.75;99264.03;5117411;28;20081;-70
2021/12/04 01:43:18;;;;;;;0.30;0.30;;;;;;;22.94;10.63;99262.16;5115996;28;20050;-70
2021/12/04 01:45:43;;;;;;;0.32;0.32;;;;;;;22.95;10.48;99258.31;5117088;28;20031;-70
2021/12/04 01:48:09;;;;;;;0.20;0.20;;;;;;;22.94;10.53;99255.88;5115893;28;20020;-70
2021/12/04 01:50:34;;;;;;;0.30;0.30;;;;;;;22.94;10.54;99262.16;5117199;28;20034;-70
2021/12/04 01:53:00;;;;;;;0.20;0.20;;;;;;;22.92;10.54;99264.38;5117015;28;20092;-70
2021/12/04 01:55:32;;;;;;;0.30;0.30;;;;;;;22.92;10.56;99264.38;5116954;28;20054;-71
2021/12/04 01:58:00;;;;;;;0.20;0.20;;;;;;;22.94;10.55;99259.44;5116624;28;20027;-70
2021/12/04 02:00:26;;;;;;;0.20;0.20;;;;;;;22.88;10.66;99269.56;5116902;28;20381;-71
2021/12/04 02:02:51;;;;;;;0.30;0.30;;;;;;;22.90;10.58;99269.28;5116800;28;20016;-69
2021/12/04 02:05:16;;;;;;;0.38;0.28;;;;;;;22.90;10.61;99268.47;5116906;28;20024;-71
2021/12/04 02:07:42;;;;;;;0.20;0.20;;;;;;;22.91;10.47;99273.63;5115676;28;20035;-70
2021/12/04 02:10:08;;;;;;;0.20;0.20;;;;;;;22.90;10.71;99269.28;5116222;28;20024;-71
2021/12/04 02:12:33;;;;;;;0.20;0.20;;;;;;;22.88;10.57;99280.47;5125539;27;20377;-70
2021/12/04 02:14:59;;;;;;;0.20;0.20;;;;;;;22.88;10.64;99274.22;5137443;27;20034;-70
2021/12/04 02:17:24;;;;;;;0.20;0.20;;;;;;;22.90;10.63;99276.66;5136615;27;20047;-70
2021/12/04 02:19:49;;;;;;;0.30;0.30;;;;;;;22.88;10.58;99280.47;5137023;27;20027;-70
2021/12/04 02:22:15;;;;;;;0.20;0.20;;;;;;;22.90;10.63;99280.19;5137123;27;20355;-70
2021/12/04 02:24:41;;;;;;;0.30;0.30;;;;;;;22.87;10.51;99281.59;5136824;27;20373;-70
2021/12/04 02:27:06;;;;;;;0.30;0.30;;;;;;;22.89;10.57;99292.19;5137030;27;20522;-70
2021/12/04 02:29:32;;;;;;;0.20;0.20;;;;;;;22.88;10.64;99285.91;5137238;27;20097;-70
2021/12/04 02:31:58;;;;;;;0.20;0.20;;;;;;;22.87;10.64;99299.88;5137148;27;20031;-70
2021/12/04 02:34:25;;;;;;;0.32;0.32;;;;;;;22.83;10.48;99305.06;5136893;27;20102;-70
2021/12/04 02:36:50;;;;;;;0.30;0.30;;;;;;;22.89;10.50;99305.81;5136811;27;20019;-69
2021/12/04 02:39:24;;;;;;;0.20;0.20;;;;;;;22.87;10.44;99305.31;5136405;27;20026;-70
2021/12/04 02:41:50;;;;;;;0.30;0.30;;;;;;;22.86;10.42;99309.94;5137132;27;20038;-70
2021/12/04 02:44:16;;;;;;;0.22;0.22;;;;;;;22.88;10.47;99317.81;5136809;27;20023;-70
2021/12/04 02:46:41;;;;;;;0.30;0.30;;;;;;;22.88;10.46;99317.81;5136219;27;20027;-70
2021/12/04 02:49:09;;;;;;;0.25;0.25;;;;;;;22.87;10.38;99316.22;5136520;27;20019;-70
2021/12/04 02:51:34;;;;;;;0.43;0.43;;;;;;;22.88;10.42;99325.97;5136509;27;20035;-70
2021/12/04 02:54:00;;;;;;;0.20;0.20;;;;;;;22.85;10.55;99326.56;5136510;27;20380;-70
2021/12/04 02:56:26;;;;;;;0.35;0.35;;;;;;;22.86;10.25;99329.00;5136354;27;20023;-69
2021/12/04 02:58:55;;;;;;;0.40;0.40;;;;;;;22.87;10.38;99321.66;5136113;27;20389;-71
2021/12/04 03:01:20;;;;;;;0.40;0.40;;;;;;;22.87;10.35;99327.09;5136279;27;20102;-70
2021/12/04 03:03:47;;;;;;;0.30;0.30;;;;;;;22.89;10.47;99324.88;5136300;27;20031;-71
2021/12/04 03:06:12;;;;;;;0.30;0.30;;;;;;;22.88;10.27;99325.97;5136170;27;20023;-70
2021/12/04 03:08:38;;;;;;;0.30;0.30;;;;;;;22.88;10.20;99334.97;5136263;27;20034;-70
2021/12/04 03:11:03;;;;;;;0.30;0.30;;;;;;;22.86;10.31;99339.09;5134850;27;20411;-70
2021/12/04 03:13:28;;;;;;;0.30;0.30;;;;;;;22.86;10.30;99341.81;5119435;27;20461;-70
2021/12/04 03:16:03;;;;;;;0.32;0.32;;;;;;;22.87;10.37;99344.25;5114295;28;20027;-71
2021/12/04 03:18:28;;;;;;;0.30;0.30;;;;;;;22.85;10.25;99345.63;5115362;28;20036;-70
2021/12/04 03:20:55;;;;;;;0.45;0.40;;;;;;;22.86;10.41;99345.34;5115291;28;20492;-71
2021/12/04 03:23:33;;;;;;;0.35;0.30;;;;;;;22.84;10.35;99344.84;5115297;28;20024;-70
2021/12/04 03:26:00;;;;;;;0.30;0.30;;;;;;;22.89;10.22;99349.41;5115114;28;20039;-71
2021/12/04 03:28:27;;;;;;;0.30;0.30;;;;;;;22.85;10.01;99351.09;5115214;28;20019;-71
2021/12/04 03:30:58;;;;;;;0.30;0.30;;;;;;;22.85;10.28;99351.09;5115135;28;20038;-70
2021/12/04 03:41:17;;;;;;;0.40;0.40;;;;;;;22.86;10.03;99358.16;5113947;28;20030;-70
2021/12/04 03:43:43;;;;;;;0.30;0.30;;;;;;;22.87;10.02;99373.41;5114591;28;20482;-70
2021/12/04 03:46:13;;;;;;;0.50;0.40;;;;;;;22.85;10.09;99378.31;5115042;28;20113;-70
2021/12/04 03:48:50;;;;;;;0.30;0.30;;;;;;;22.84;9.89;99376.72;5115501;28;20085;-70
2021/12/04 03:51:15;;;;;;;0.20;0.20;;;;;;;22.87;9.96;99385.13;5113768;28;20430;-70
2021/12/04 03:53:41;;;;;;;0.28;0.28;;;;;;;22.87;10.03;99381.59;5114367;28;20019;-70
2021/12/04 03:56:06;;;;;;;0.30;0.30;;;;;;;22.85;10.01;99378.31;5114860;28;20027;-71
2021/12/04 03:58:32;;;;;;;0.20;0.20;;;;;;;22.83;9.91;99385.97;5113704;28;20022;-71
2021/12/04 04:00:57;;;;;;;0.25;0.25;;;;;;;22.83;9.89;99378.63;5114634;28;20414;-70
2021/12/04 04:03:25;;;;;;;0.40;0.40;;;;;;;22.85;9.90;99384.59;5114459;28;20040;-70
2021/12/04 04:05:50;;;;;;;0.32;0.32;;;;;;;22.84;10.01;99387.63;5114543;28;20028;-70
2021/12/04 04:08:16;;;;;;;0.32;0.30;;;;;;;22.81;9.90;99396.38;5114205;28;20488;-70
2021/12/04 04:10:43;;;;;;;0.40;0.30;;;;;;;22.80;10.07;99389.28;5114092;28;20034;-70
2021/12/04 04:13:11;;;;;;;0.28;0.28;;;;;;;22.83;9.91;99396.88;5126859;27;20031;-71
2021/12/04 04:15:37;;;;;;;0.38;0.38;;;;;;;22.82;9.82;99398.00;5134673;27;20104;-70
2021/12/04 04:18:04;;;;;;;0.20;0.20;;;;;;;22.80;9.77;99397.47;5134340;27;20043;-71
2021/12/04 04:20:30;;;;;;;0.30;0.30;;;;;;;22.82;9.79;99406.19;5134748;27;20056;-70
2021/12/04 04:22:56;;;;;;;0.28;0.28;;;;;;;22.82;9.75;99411.63;5134967;27;20023;-70
2021/12/04 04:25:21;;;;;;;0.20;0.20;;;;;;;22.82;9.89;99408.91;5134758;27;20461;-70
2021/12/04 04:27:47;;;;;;;0.20;0.20;;;;;;;22.82;9.71;99404.25;5134674;27;20031;-70
2021/12/04 04:30:14;;;;;;;0.20;0.20;;;;;;;22.82;9.75;99411.63;5134688;27;20023;-71
2021/12/04 04:32:40;;;;;;;0.30;0.30;;;;;;;22.83;9.71;99410.50;5134629;27;20036;-70
2021/12/04 04:35:09;;;;;;;0.20;0.20;;;;;;;22.80;9.57;99414.63;5134736;27;20043;-71
2021/12/04 05:10:22;;;;;;;0.30;0.30;;;;;;;22.81;9.39;99453.56;5094763;28;20039;-70
2021/12/04 05:15:23;;;;;;;0.20;0.20;;;;;;;22.80;9.34;99462.84;5074902;28;20405;-70
2021/12/04 05:20:25;;;;;;;0.20;0.20;;;;;;;22.75;9.42;99476.50;5074582;28;20027;-70
2021/12/04 05:22:51;;;;;;;0.30;0.30;;;;;;;22.76;9.25;99475.41;5074422;28;20025;-70
2021/12/04 05:25:16;;;;;;;0.20;0.20;;;;;;;22.76;9.24;99469.97;5097133;28;20028;-70
2021/12/04 05:27:42;;;;;;;0.30;0.30;;;;;;;22.78;9.15;99475.94;5117477;28;20024;-70
2021/12/04 05:30:08;;;;;;;0.30;0.30;;;;;;;22.75;9.09;99485.50;5117416;27;20450;-70
2021/12/04 05:32:33;;;;;;;0.20;0.20;;;;;;;22.77;9.00;99487.94;5117926;28;20023;-70
2021/12/04 05:34:58;;;;;;;0.28;0.28;;;;;;;22.77;9.04;99487.94;5117285;28;20028;-70
2021/12/04 05:37:24;;;;;;;0.20;0.20;;;;;;;22.76;8.90;99484.41;5117404;27;20031;-70
2021/12/04 05:39:49;;;;;;;0.20;0.20;;;;;;;22.74;8.89;99486.59;5116921;28;20476;-70
2021/12/04 05:42:15;;;;;;;0.25;0.25;;;;;;;22.76;9.04;99494.50;5117250;28;20035;-70
2021/12/04 05:44:42;;;;;;;0.22;0.22;;;;;;;22.75;8.78;99503.75;5116843;28;20027;-70
2021/12/04 05:47:14;;;;;;;0.30;0.30;;;;;;;22.75;8.98;99509.19;5117197;28;20031;-70
2021/12/04 05:57:34;;;;;;;0.20;0.20;;;;;;;22.74;8.71;99519.28;5074309;28;20032;-70
2021/12/04 06:00:00;;;;;;;0.30;0.30;;;;;;;22.72;8.88;99521.50;5073863;28;20032;-70
2021/12/04 06:02:25;;;;;;;0.20;0.20;;;;;;;22.74;8.63;99530.19;5074146;28;20028;-70
2021/12/04 06:04:51;;;;;;;0.30;0.30;;;;;;;22.72;8.49;99535.13;5073973;28;20474;-71
2021/12/04 06:07:16;;;;;;;0.40;0.40;;;;;;;22.72;8.54;99537.84;5074401;28;20040;-71
2021/12/04 06:09:41;;;;;;;0.20;0.20;;;;;;;22.73;8.36;99544.09;5073962;28;20501;-71
2021/12/04 06:12:08;;;;;;;0.30;0.30;;;;;;;22.74;8.33;99540.28;5075762;28;20044;-70
2021/12/04 06:14:34;;;;;;;0.30;0.30;;;;;;;22.73;8.39;99546.81;5094281;28;20066;-70
2021/12/04 06:16:59;;;;;;;0.38;0.38;;;;;;;22.69;8.32;99544.66;5094037;28;20433;-70
2021/12/04 06:24:52;;;;;;;0.20;0.20;;;;;;;22.71;7.91;99551.75;5094060;28;20505;-70
2021/12/04 06:27:18;;;;;;;0.30;0.30;;;;;;;22.72;8.14;99558.81;5094066;28;20032;-70
2021/12/04 06:29:43;;;;;;;0.20;0.20;;;;;;;22.71;8.05;99554.47;5094231;28;20032;-70
2021/12/04 06:32:08;;;;;;;0.30;0.30;;;;;;;22.72;8.11;99554.19;5105005;28;20397;-70
2021/12/04 06:34:34;;;;;;;0.30;0.30;;;;;;;22.72;8.03;99559.63;5117676;28;20034;-69
2021/12/04 06:36:59;;;;;;;0.22;0.22;;;;;;;22.71;7.98;99566.16;5117006;28;20023;-69
2021/12/04 06:39:25;;;;;;;0.30;0.30;;;;;;;22.67;7.96;99576.81;5117261;28;20030;-69
2021/12/04 06:41:50;;;;;;;0.30;0.30;;;;;;;22.69;7.90;99580.06;5118504;28;20470;-69
2021/12/04 06:44:16;;;;;;;0.40;0.40;;;;;;;22.70;7.87;99586.34;5118015;28;20047;-69
2021/12/04 06:46:42;;;;;;;0.20;0.20;;;;;;;22.69;8.12;99582.78;5116041;28;20031;-69
2021/12/04 06:51:41;;;;;;;0.30;0.30;;;;;;;22.67;7.86;99587.72;5115629;28;20039;-69
2021/12/04 06:54:13;;;;;;;0.30;0.30;;;;;;;22.69;7.59;99585.50;5115916;28;20100;-69
2021/12/04 06:56:41;;;;;;;0.30;0.30;;;;;;;22.67;7.67;99593.16;5115311;28;20197;-71
2021/12/04 06:59:08;;;;;;;0.30;0.30;;;;;;;22.69;7.66;99598.31;5115382;28;20081;-71
2021/12/04 07:01:34;;;;;;;0.30;0.30;;;;;;;22.68;7.79;99602.97;5115647;28;20045;-69
2021/12/04 07:04:02;;;;;;;0.50;0.40;;;;;;;22.69;7.63;99604.56;5114379;28;20450;-71
2021/12/04 07:06:28;;;;;;;0.30;0.30;;;;;;;22.67;7.70;99612.22;5115781;28;20361;-71
2021/12/04 07:08:53;;;;;;;0.38;0.38;;;;;;;22.67;7.50;99617.66;5115444;28;20028;-70
2021/12/04 07:11:18;;;;;;;0.40;0.40;;;;;;;22.67;7.56;99617.66;5115535;28;20419;-71
2021/12/04 07:13:44;;;;;;;0.30;0.30;;;;;;;22.66;7.41;99621.50;5130073;27;20031;-71
2021/12/04 07:16:13;;;;;;;0.30;0.30;;;;;;;22.65;7.44;99636.22;5135506;27;20412;-70
2021/12/04 07:18:38;;;;;;;0.22;0.22;;;;;;;22.65;7.33;99635.41;5136446;27;20023;-70
2021/12/04 07:21:04;;;;;;;0.38;0.38;;;;;;;;;;5135736;27;20031;-70
2021/12/04 07:23:30;;;;;;;0.50;0.50;;;;;;;22.64;7.24;99629.13;5135843;27;20031;-70
2021/12/04 07:25:55;;;;;;;0.40;0.40;;;;;;;22.66;7.30;99637.84;5135965;27;20106;-70
2021/12/04 07:28:20;;;;;;;0.30;0.30;;;;;;;22.66;7.33;99651.47;5137041;27;20048;-71
2021/12/04 07:30:46;;;;;;;0.40;0.40;;;;;;;22.65;7.18;99647.09;5136729;27;20070;-70
2021/12/04 07:33:11;;;;;;;0.30;0.30;;;;;;;22.66;7.28;99648.75;5134334;27;20380;-71
2021/12/04 07:35:37;;;;;;;0.30;0.30;;;;;;;22.66;7.23;99654.19;5135136;27;20037;-70
2021/12/04 07:38:02;;;;;;;0.38;0.38;;;;;;;22.65;7.33;99652.56;5135530;27;20027;-70
2021/12/04 07:40:27;;;;;;;0.40;0.40;;;;;;;22.66;7.12;99648.75;5135189;27;20469;-71
2021/12/04 07:42:53;;;;;;;0.40;0.40;;;;;;;22.65;7.08;99647.09;5135140;27;20027;-70
2021/12/04 07:45:18;;;;;;;0.50;0.50;;;;;;;22.65;7.15;99651.75;5135461;27;20030;-70
2021/12/04 07:47:44;;;;;;;0.40;0.40;;;;;;;;;;5135117;27;20023;-70
2021/12/04 07:50:09;;;;;;;0.30;0.30;;;;;;;22.62;7.06;99655.03;5135824;27;20031;-70
2021/12/04 07:52:37;;;;;;;0.35;0.35;;;;;;;22.61;6.99;99647.97;5134877;27;20069;-70
2021/12/04 07:55:03;;;;;;;0.35;0.35;;;;;;;22.61;7.00;99659.69;5134848;27;20092;-70
2021/12/04 07:57:28;;;;;;;0.35;0.35;;;;;;;22.62;6.91;99660.47;5135159;27;20027;-70
2021/12/04 07:59:54;;;;;;;0.30;0.30;;;;;;;22.63;6.86;99660.19;5134743;27;20465;-70
2021/12/04 08:02:19;;;;;;;0.30;0.30;;;;;;;22.62;6.92;99658.56;5134699;27;20027;-70
2021/12/04 08:04:45;;;;;;;0.43;0.35;;;;;;;22.59;6.84;99659.13;5135105;27;20023;-71
2021/12/04 08:07:11;;;;;;;0.40;0.40;;;;;;;22.60;7.02;99666.22;5135135;27;20088;-70
2021/12/04 08:09:36;;;;;;;0.40;0.40;;;;;;;22.60;6.89;99673.59;5135118;27;20023;-71
2021/12/04 08:12:02;;;;;;;0.30;0.30;;;;;;;22.61;6.84;99676.03;5135063;27;20443;-70
2021/12/04 08:14:27;;;;;;;0.40;0.40;;;;;;;22.60;6.91;99676.31;5135091;27;20449;-70
2021/12/04 08:16:52;;;;;;;0.47;0.47;;;;;;;22.61;6.89;99692.38;5134310;27;20492;-70
2021/12/04 08:19:19;;;;;;;0.40;0.40;;;;;;;22.62;6.90;99690.44;5134865;27;20031;-70
2021/12/04 08:21:45;;;;;;;0.35;0.35;;;;;;;22.62;6.94;99696.69;5134764;27;20027;-71
2021/12/04 08:24:10;;;;;;;0.30;0.30;;;;;;;22.60;7.02;99709.78;5134912;27;20083;-71
2021/12/04 08:26:36;;;;;;;0.40;0.40;;;;;;;22.60;6.94;99696.16;5134590;27;20050;-71
2021/12/04 08:29:02;;;;;;;0.40;0.40;;;;;;;22.61;6.94;99702.41;5136748;27;20465;-70
2021/12/04 08:31:27;;;;;;;0.40;0.40;;;;;;;22.61;6.89;99700.53;5141832;27;20019;-70
2021/12/04 08:33:53;;;;;;;0.40;0.40;;;;;;;22.61;6.82;99705.97;5140099;28;20027;-70
2021/12/04 08:36:18;;;;;;;0.40;0.40;;;;;;;22.63;6.77;99697.53;5140333;28;20052;-71
2021/12/04 08:38:47;;;;;;;0.40;0.40;;;;;;;22.60;6.89;99698.91;5139882;28;20020;-70
2021/12/04 08:41:13;;;;;;;0.30;0.30;;;;;;;22.59;6.79;99697.25;5139360;27;20080;-70
2021/12/04 08:43:38;;;;;;;0.38;0.38;;;;;;;22.62;6.77;99699.41;5141614;27;20083;-70
2021/12/04 08:46:04;;;;;;;0.30;0.30;;;;;;;22.62;6.84;99706.78;5143673;27;20019;-70
2021/12/04 08:48:31;;;;;;;0.28;0.28;;;;;;;22.60;6.93;99709.78;5144667;27;20450;-70
2021/12/04 08:50:58;;;;;;;0.35;0.35;;;;;;;22.61;6.74;99711.44;5140834;27;20023;-70
2021/12/04 08:53:24;;;;;;;0.20;0.20;;;;;;;22.63;6.84;99717.41;5138756;27;20031;-70
2021/12/04 08:55:49;;;;;;;0.20;0.20;;;;;;;22.61;6.89;99725.03;5138451;27;20096;-71
2021/12/04 08:58:15;;;;;;;0.22;0.22;;;;;;;22.61;6.82;99726.94;5138820;27;20034;-71
2021/12/04 09:00:59;;;;;;;0.30;0.30;;;;;;;22.67;6.96;99736.69;5138683;27;20021;-71
2021/12/04 09:03:27;;;;;;;0.30;0.30;;;;;;;22.63;6.99;99731.00;5138825;27;20047;-71
2021/12/04 09:05:53;;;;;;;0.28;0.28;;;;;;;22.62;6.80;99729.38;5138622;27;20034;-71
2021/12/04 09:08:20;;;;;;;0.30;0.30;;;;;;;22.59;7.04;99727.22;5138586;27;20027;-71
2021/12/04 09:10:47;;;;;;;0.30;0.28;;;;;;;22.60;7.07;99731.56;5139316;27;20042;-71
2021/12/04 09:13:13;;;;;;;0.30;0.30;;;;;;;22.60;7.01;99739.75;5128317;27;20427;-70
2021/12/04 09:15:39;;;;;;;0.30;0.30;;;;;;;22.59;7.05;99746.28;5118108;28;20023;-70
2021/12/04 09:18:04;;;;;;;0.30;0.30;;;;;;;22.61;7.05;99746.81;5117235;28;20054;-70
2021/12/04 09:20:31;;;;;;;0.20;0.20;;;;;;;22.60;6.98;99753.34;5118095;28;20031;-71
2021/12/04 09:22:57;;;;;;;0.47;0.40;;;;;;;22.59;6.98;99751.72;5117659;28;20470;-70
2021/12/04 09:25:24;;;;;;;0.30;0.30;;;;;;;22.60;6.78;99753.34;5117378;28;20051;-71
2021/12/04 10:06:14;;;;;;;0.20;0.20;;;;;;;22.58;6.21;99796.41;5116639;28;20085;-70
2021/12/04 10:22:37;;;;;;;0.30;0.30;;;;;;;22.57;6.35;99808.38;5137081;27;20027;-71
2021/12/04 10:33:45;;;;;;;0.22;0.22;;;;;;;22.55;6.20;99818.75;5114109;28;20038;-70
2021/12/04 10:36:11;;;;;;;0.30;0.30;;;;;;;22.55;6.13;99816.03;5113963;28;20036;-71
2021/12/04 10:38:44;;;;;;;0.25;0.25;;;;;;;22.55;5.92;99821.47;5114006;28;20110;-70
2021/12/04 10:41:11;;;;;;;0.20;0.20;;;;;;;22.55;6.09;99829.63;5113762;28;20028;-71
2021/12/04 10:43:37;;;;;;;0.30;0.30;;;;;;;22.56;5.98;99816.81;5113990;28;20082;-71
2021/12/04 10:46:15;;;;;;;0.30;0.30;;;;;;;22.54;5.87;99822.56;5113719;28;20491;-71
2021/12/04 10:48:49;;;;;;;0.45;0.40;;;;;;;22.56;5.93;99825.84;5113616;28;20101;-71
2021/12/04 10:53:50;;;;;;;0.20;0.20;;;;;;;22.56;5.87;99812.22;5113450;28;20118;-70
2021/12/04 10:57:17;;;;;;;0.30;0.30;;;;;;;22.55;5.78;99816.03;5113476;28;20035;-70
2021/12/04 10:59:27;;;;;;;0.30;0.30;;;;;;;22.56;5.87;99823.09;5100310;28;20438;-70
2021/12/04 11:02:08;;;;;;;0.30;0.30;;;;;;;22.56;5.91;99825.00;5125815;27;20481;-70
2021/12/04 11:04:49;;;;;;;0.40;0.40;;;;;;;22.54;5.79;99824.47;5136018;27;20100;-70
2021/12/04 11:38:01;;;;;;;0.32;0.32;;;;;;;22.53;5.76;99858.25;5113718;28;20027;-70
2021/12/04 11:43:15;;;;;;;0.30;0.30;;;;;;;22.49;5.79;99858.81;5114923;28;20381;-70
2021/12/04 11:48:39;;;;;;;0.40;0.40;;;;;;;22.55;5.75;99865.03;5072056;28;20474;-70
2021/12/04 11:51:10;;;;;;;0.38;0.38;;;;;;;22.50;5.62;99873.22;5055346;28;20032;-70
2021/12/04 11:53:35;;;;;;;0.43;0.30;;;;;;;22.52;5.61;99875.69;5071792;28;20090;-70
2021/12/04 11:56:01;;;;;;;0.30;0.30;;;;;;;22.50;5.56;99879.47;5071600;28;20032;-70
2021/12/04 11:58:31;;;;;;;0.40;0.40;;;;;;;22.50;5.68;99878.69;5071649;28;20032;-70
2021/12/04 12:00:58;;;;;;;0.30;0.30;;;;;;;22.47;5.82;99879.22;5071931;28;20036;-70
2021/12/04 12:03:26;;;;;;;0.40;0.40;;;;;;;22.49;5.69;99882.47;5071587;28;20037;-70
2021/12/04 12:05:54;;;;;;;0.20;0.20;;;;;;;22.50;5.67;99889.56;5071766;28;20040;-71
2021/12/04 12:08:24;;;;;;;0.28;0.28;;;;;;;22.49;5.72;99893.38;5071436;28;20043;-71
2021/12/04 12:10:52;;;;;;;0.50;0.50;;;;;;;22.48;5.73;99897.22;5071488;28;20150;-71
2021/12/04 12:13:33;;;;;;;0.40;0.40;;;;;;;22.53;5.68;99901.81;5077742;28;20031;-70
2021/12/04 12:16:05;;;;;;;0.38;0.30;;;;;;;22.48;5.69;99913.53;5091374;28;20032;-70
2021/12/04 12:18:30;;;;;;;0.30;0.30;;;;;;;22.50;5.72;99905.91;5091027;28;20032;-70
2021/12/04 12:21:06;;;;;;;0.52;0.50;;;;;;;22.48;5.72;99902.66;5074667;28;20055;-70
2021/12/04 12:23:33;;;;;;;0.30;0.30;;;;;;;22.49;5.66;99905.09;5091568;28;20108;-70
2021/12/04 12:26:15;;;;;;;1.30;0.40;;;;;;;22.48;5.73;99902.66;5088977;28;20044;-71
2021/12/04 12:37:17;;;;;;;0.35;0.35;;;;;;;22.54;5.59;99917.84;5113824;28;20023;-70
2021/12/04 12:39:53;;;;;;;0.50;0.50;;;;;;;22.50;5.50;99908.63;5113970;28;20470;-70
2021/12/04 12:42:30;;;;;;;0.40;0.40;;;;;;;22.50;5.69;99916.78;5114376;28;20138;-70
2021/12/04 12:45:17;;;;;;;0.50;0.40;;;;;;;22.52;5.76;99919.25;5114053;28;20020;-70
2021/12/04 12:48:03;;;;;;;0.45;0.45;;;;;;;22.50;5.60;99916.78;5113948;28;20073;-71
2021/12/04 12:50:33;;;;;;;0.40;0.40;;;;;;;22.47;5.59;99920.06;5114137;28;20024;-70
2021/12/04 12:53:07;;;;;;;0.50;0.40;;;;;;;22.47;5.55;99925.50;5114088;28;20101;-70
2021/12/04 12:55:34;;;;;;;0.40;0.40;;;;;;;22.48;5.57;99927.16;5114041;28;20019;-71
2021/12/04 12:58:11;;;;;;;0.50;0.50;;;;;;;22.47;5.67;99925.50;5113578;28;20103;-71
2021/12/04 13:12:09;;;;;;;0.50;0.50;;;;;;;22.51;5.49;99948.38;5113912;28;20059;-70
2021/12/04 13:14:40;;;;;;;0.40;0.40;;;;;;;22.45;5.39;99953.00;5130176;28;20027;-70
2021/12/04 13:17:07;;;;;;;0.40;0.40;;;;;;;22.45;5.49;99947.56;5133771;28;20047;-71
2021/12/04 13:19:34;;;;;;;0.32;0.32;;;;;;;22.42;5.56;99947.31;5134248;27;20019;-70
2021/12/04 13:22:02;;;;;;;0.40;0.40;;;;;;;22.45;5.43;99952.22;5134367;27;20027;-70
2021/12/04 13:24:31;;;;;;;0.40;0.32;;;;;;;22.44;5.36;99961.50;5134166;27;20098;-70
2021/12/04 13:26:56;;;;;;;0.60;0.60;;;;;;;22.43;5.29;99959.84;5134580;27;20027;-70
2021/12/04 13:29:23;;;;;;;0.50;0.50;;;;;;;22.43;5.30;99965.28;5134608;27;20072;-70
2021/12/04 13:31:53;;;;;;;0.50;0.40;;;;;;;22.43;5.34;99971.53;5138275;27;20106;-70
2021/12/04 13:34:26;;;;;;;0.40;0.40;;;;;;;22.43;5.27;99973.47;5137994;27;20043;-70
2021/12/04 13:36:53;;;;;;;0.38;0.38;;;;;;;22.45;5.28;99980.25;5137820;27;20418;-70
2021/12/04 13:39:19;;;;;;;0.50;0.50;;;;;;;22.45;5.31;99979.44;5138099;27;20043;-70
2021/12/04 13:41:44;;;;;;;0.50;0.50;;;;;;;22.44;5.27;99975.09;5137890;27;20104;-70
2021/12/04 13:44:12;;;;;;;0.52;0.50;;;;;;;22.43;5.26;99987.06;5138203;27;20016;-70
2021/12/04 13:46:44;;;;;;;0.50;0.50;;;;;;;22.43;5.34;99981.63;5137667;27;20020;-70
2021/12/04 13:49:10;;;;;;;0.47;0.47;;;;;;;22.43;5.18;99981.63;5137776;27;20363;-70
2021/12/04 13:51:35;;;;;;;0.45;0.40;;;;;;;22.44;5.20;99986.81;5137684;27;20023;-70
2021/12/04 13:54:02;;;;;;;0.40;0.40;;;;;;;22.40;5.22;99982.97;5137252;27;20381;-70
2021/12/04 13:56:27;;;;;;;0.60;0.40;;;;;;;22.45;5.15;99987.59;5137196;27;20016;-70
2021/12/04 13:58:56;;;;;;;0.50;0.50;;;;;;;22.43;5.15;99995.25;5137409;27;20023;-70
2021/12/04 14:01:23;;;;;;;0.50;0.50;;;;;;;22.46;5.09;99994.69;5137618;27;20046;-70
2021/12/04 14:03:48;;;;;;;0.40;0.40;;;;;;;22.44;5.06;99999.59;5137549;27;20023;-70
2021/12/04 14:06:15;;;;;;;0.50;0.40;;;;;;;22.44;5.11;99999.59;5137485;27;20524;-70
2021/12/04 14:08:41;;;;;;;0.55;0.50;;;;;;;22.42;5.14;99999.03;5137294;27;20023;-70
2021/12/04 14:11:06;;;;;;;0.40;0.40;;;;;;;22.40;5.04;100001.22;5137292;27;20159;-71
2021/12/04 14:13:32;;;;;;;0.35;0.35;;;;;;;22.42;4.76;100004.50;5130493;27;20530;-70
2021/12/04 14:15:57;;;;;;;0.55;0.43;;;;;;;22.44;5.01;100005.06;5116539;28;20019;-71
2021/12/04 14:18:23;;;;;;;0.38;0.38;;;;;;;22.42;4.93;100010.78;5116539;28;20077;-71
2021/12/04 14:20:51;;;;;;;0.30;0.30;;;;;;;22.41;5.15;100008.31;5116437;28;20024;-71
2021/12/04 14:23:16;;;;;;;0.40;0.40;;;;;;;22.41;4.97;100016.47;5116535;28;20027;-70
2021/12/04 14:25:43;;;;;;;0.50;0.50;;;;;;;22.42;4.94;100018.09;5116446;28;20024;-70
2021/12/04 14:28:09;;;;;;;0.47;0.47;;;;;;;22.39;5.02;100024.94;5116062;28;20069;-71
2021/12/04 14:30:36;;;;;;;0.32;0.32;;;;;;;22.41;4.96;100021.94;5116370;28;20039;-70
2021/12/04 14:33:03;;;;;;;0.40;0.40;;;;;;;22.39;4.97;100033.09;5116025;27;20433;-70
2021/12/04 14:35:32;;;;;;;0.45;0.40;;;;;;;22.38;5.01;100030.66;5116414;28;20016;-70
2021/12/04 14:37:58;;;;;;;0.38;0.38;;;;;;;22.41;5.01;100021.94;5116195;28;20024;-70
2021/12/04 14:40:35;;;;;;;0.30;0.30;;;;;;;22.40;5.03;100028.44;5116219;28;20024;-70
2021/12/04 14:43:01;;;;;;;0.40;0.40;;;;;;;22.40;4.89;100036.63;5115603;28;20362;-70
2021/12/04 14:45:30;;;;;;;0.30;0.30;;;;;;;22.38;4.91;100045.06;5115794;27;20015;-70
2021/12/04 14:48:01;;;;;;;0.30;0.30;;;;;;;22.37;4.85;100048.06;5116103;28;20042;-70
2021/12/04 14:50:27;;;;;;;0.40;0.40;;;;;;;22.40;4.93;100050.25;5116026;28;20114;-70
2021/12/04 14:52:57;;;;;;;0.55;0.47;;;;;;;22.37;4.90;100050.78;5115882;28;20019;-70